Etusivu
METAR-TAF:

METAR-TAF

Lentoasemat :

Princeton, Brittiläinen Kolumbia, Kanada

Leveyspiiri: 49-28N, Pituuspiiri: 120-31W, korkeus merenpinnasta: 700 m

Tämänhetkinen sää

Tämä raportti tehtiin 2 tuntia ja 50 minuuttia sitten, kello 01.00 UTC
Tuuli 4 kn lännestä/luoteesta, vaihdellen lännen/lounaan ja pohjoisen välillä
Lämpötila 20°C
Kosteus 14%
Ilmanpaine 1014 hPa
Näkyvyys: 40.2 km
Muutamia pilviä 18000 ft:n korkeudessa
Muutamia pilviä 29000 ft:n korkeudessa
Muutamia pilviä 32000 ft:n korkeudessa

METAR: CYDC 100100Z 29004KT 250V360 25SM FEW180 FEW290 FEW320 20/M08 A2994 RMK AC1CI1CC1 AC TR CI TR CC TR ACSL LAST STFD OB/NEXT 10 1300UTC SLP145 DENSITY ALT 3500FT

Aika: 20:50 (03:50 UTC)


TAF: puuttuu

Säähavainnot ja -ennusteet yli 4000 lentoasemalta (METAR- ja TAF-raportit).

Käytössä olevat sääasemat on merkitty karttaan keltaisilla ja punaisilla pisteillä.

Aseta hiiri pisteen päälle nähdäksesi sääaseman nimen.

Klikkaa sitten nähdäksesi säähavainnot ja -ennusteet.

Kartan vaihtaminen: klikkaa mustalla rastilla varustettuja vihreitä pisteitä, niin voit zoomata sisään; viivalla varustettua vihreää pistettä, niin voit zoomata ulos tai vihreitä nuolia, niin pääset viereisille kartoille.


METAR-TAF: